sensor_id;sensor_type;location;lat;lon;timestamp;temperature;humidity
39315;DHT22;28703;44.412;11.918;2023-03-01T00:00:00;6.80;99.90
39315;DHT22;28703;44.412;11.918;2023-03-01T00:02:26;6.90;99.90
39315;DHT22;28703;44.412;11.918;2023-03-01T00:04:52;6.90;99.90
39315;DHT22;28703;44.412;11.918;2023-03-01T00:07:18;6.90;99.90
39315;DHT22;28703;44.412;11.918;2023-03-01T00:09:44;7.00;99.90
39315;DHT22;28703;44.412;11.918;2023-03-01T00:12:11;7.00;99.90
39315;DHT22;28703;44.412;11.918;2023-03-01T00:14:37;7.00;99.90
39315;DHT22;28703;44.412;11.918;2023-03-01T00:17:03;7.00;99.90
39315;DHT22;28703;44.412;11.918;2023-03-01T00:19:29;7.00;99.90
39315;DHT22;28703;44.412;11.918;2023-03-01T00:21:55;7.00;99.90
39315;DHT22;28703;44.412;11.918;2023-03-01T00:24:21;7.00;99.90
39315;DHT22;28703;44.412;11.918;2023-03-01T00:26:46;7.00;99.90
39315;DHT22;28703;44.412;11.918;2023-03-01T00:29:12;7.00;99.90
39315;DHT22;28703;44.412;11.918;2023-03-01T00:31:38;7.10;99.90
39315;DHT22;28703;44.412;11.918;2023-03-01T00:34:05;7.10;99.90
39315;DHT22;28703;44.412;11.918;2023-03-01T00:36:36;7.00;99.90
39315;DHT22;28703;44.412;11.918;2023-03-01T00:39:03;7.00;99.90
39315;DHT22;28703;44.412;11.918;2023-03-01T00:41:30;6.90;99.90
39315;DHT22;28703;44.412;11.918;2023-03-01T00:43:56;6.90;99.90
39315;DHT22;28703;44.412;11.918;2023-03-01T00:46:25;6.90;99.90
39315;DHT22;28703;44.412;11.918;2023-03-01T00:48:51;6.90;99.90
39315;DHT22;28703;44.412;11.918;2023-03-01T00:51:23;6.90;99.90
39315;DHT22;28703;44.412;11.918;2023-03-01T00:53:51;6.90;99.90
39315;DHT22;28703;44.412;11.918;2023-03-01T00:56:19;6.90;99.90
39315;DHT22;28703;44.412;11.918;2023-03-01T00:58:44;7.00;99.90
39315;DHT22;28703;44.412;11.918;2023-03-01T01:01:19;6.90;99.90
39315;DHT22;28703;44.412;11.918;2023-03-01T01:03:52;6.90;99.90
39315;DHT22;28703;44.412;11.918;2023-03-01T01:06:21;6.90;99.90
39315;DHT22;28703;44.412;11.918;2023-03-01T01:08:48;6.90;99.90
39315;DHT22;28703;44.412;11.918;2023-03-01T01:11:15;6.90;99.90
39315;DHT22;28703;44.412;11.918;2023-03-01T01:13:41;6.90;99.90
39315;DHT22;28703;44.412;11.918;2023-03-01T01:16:07;7.00;99.90
39315;DHT22;28703;44.412;11.918;2023-03-01T01:18:35;6.90;99.90
39315;DHT22;28703;44.412;11.918;2023-03-01T01:21:06;6.90;99.90
39315;DHT22;28703;44.412;11.918;2023-03-01T01:23:32;6.80;99.90
39315;DHT22;28703;44.412;11.918;2023-03-01T01:26:04;6.80;99.90
39315;DHT22;28703;44.412;11.918;2023-03-01T01:28:30;6.80;99.90
39315;DHT22;28703;44.412;11.918;2023-03-01T01:30:56;6.80;99.90
39315;DHT22;28703;44.412;11.918;2023-03-01T01:33:22;6.70;99.90
39315;DHT22;28703;44.412;11.918;2023-03-01T01:35:48;6.70;99.90
39315;DHT22;28703;44.412;11.918;2023-03-01T01:38:14;6.70;99.90
39315;DHT22;28703;44.412;11.918;2023-03-01T01:40:46;6.70;99.90
39315;DHT22;28703;44.412;11.918;2023-03-01T01:43:25;6.60;99.90
39315;DHT22;28703;44.412;11.918;2023-03-01T01:46:02;6.60;99.90
39315;DHT22;28703;44.412;11.918;2023-03-01T01:48:39;6.60;99.90
39315;DHT22;28703;44.412;11.918;2023-03-01T01:51:08;6.60;99.90
39315;DHT22;28703;44.412;11.918;2023-03-01T01:53:35;6.60;99.90
39315;DHT22;28703;44.412;11.918;2023-03-01T01:56:02;6.70;99.90
39315;DHT22;28703;44.412;11.918;2023-03-01T01:58:30;6.70;99.90
39315;DHT22;28703;44.412;11.918;2023-03-01T02:00:56;6.70;99.90
39315;DHT22;28703;44.412;11.918;2023-03-01T02:03:29;6.80;99.90
39315;DHT22;28703;44.412;11.918;2023-03-01T02:06:07;6.70;99.90
39315;DHT22;28703;44.412;11.918;2023-03-01T02:08:40;6.70;99.90
39315;DHT22;28703;44.412;11.918;2023-03-01T02:11:08;6.70;99.90
39315;DHT22;28703;44.412;11.918;2023-03-01T02:13:36;6.60;99.90
39315;DHT22;28703;44.412;11.918;2023-03-01T02:16:08;6.60;99.90
39315;DHT22;28703;44.412;11.918;2023-03-01T02:18:35;6.60;99.90
39315;DHT22;28703;44.412;11.918;2023-03-01T02:23:29;6.50;99.90
39315;DHT22;28703;44.412;11.918;2023-03-01T02:28:32;6.60;99.90
39315;DHT22;28703;44.412;11.918;2023-03-01T02:30:59;6.60;99.90
39315;DHT22;28703;44.412;11.918;2023-03-01T02:33:45;6.50;99.90
39315;DHT22;28703;44.412;11.918;2023-03-01T02:36:20;6.50;99.90
39315;DHT22;28703;44.412;11.918;2023-03-01T02:38:48;6.60;99.90
39315;DHT22;28703;44.412;11.918;2023-03-01T02:41:16;6.50;99.90
39315;DHT22;28703;44.412;11.918;2023-03-01T02:43:43;6.50;99.90
39315;DHT22;28703;44.412;11.918;2023-03-01T02:46:16;6.40;99.90
39315;DHT22;28703;44.412;11.918;2023-03-01T02:48:52;6.30;99.90
39315;DHT22;28703;44.412;11.918;2023-03-01T02:51:45;6.20;99.90
39315;DHT22;28703;44.412;11.918;2023-03-01T02:54:21;6.20;99.90
39315;DHT22;28703;44.412;11.918;2023-03-01T02:56:50;6.20;99.90
39315;DHT22;28703;44.412;11.918;2023-03-01T02:59:26;6.10;99.90
39315;DHT22;28703;44.412;11.918;2023-03-01T03:01:54;6.10;99.90
39315;DHT22;28703;44.412;11.918;2023-03-01T03:04:20;6.10;99.90
39315;DHT22;28703;44.412;11.918;2023-03-01T03:06:50;6.20;99.90
39315;DHT22;28703;44.412;11.918;2023-03-01T03:09:17;6.10;99.90
39315;DHT22;28703;44.412;11.918;2023-03-01T03:11:45;6.10;99.90
39315;DHT22;28703;44.412;11.918;2023-03-01T03:14:12;6.20;99.90
39315;DHT22;28703;44.412;11.918;2023-03-01T03:16:46;6.20;99.90
39315;DHT22;28703;44.412;11.918;2023-03-01T03:19:12;6.10;99.90
39315;DHT22;28703;44.412;11.918;2023-03-01T03:21:39;6.10;99.90
39315;DHT22;28703;44.412;11.918;2023-03-01T03:24:05;6.00;99.90
39315;DHT22;28703;44.412;11.918;2023-03-01T03:26:31;5.90;99.90
39315;DHT22;28703;44.412;11.918;2023-03-01T03:28:58;5.90;99.90
39315;DHT22;28703;44.412;11.918;2023-03-01T03:31:23;6.00;99.90
39315;DHT22;28703;44.412;11.918;2023-03-01T03:33:49;6.00;99.90
39315;DHT22;28703;44.412;11.918;2023-03-01T03:36:17;6.00;99.90
39315;DHT22;28703;44.412;11.918;2023-03-01T03:38:44;6.00;99.90
39315;DHT22;28703;44.412;11.918;2023-03-01T03:41:11;6.00;99.90
39315;DHT22;28703;44.412;11.918;2023-03-01T03:43:38;5.90;99.90
39315;DHT22;28703;44.412;11.918;2023-03-01T03:46:06;5.90;99.90
39315;DHT22;28703;44.412;11.918;2023-03-01T03:48:43;5.90;99.90
39315;DHT22;28703;44.412;11.918;2023-03-01T03:51:11;5.90;99.90
39315;DHT22;28703;44.412;11.918;2023-03-01T03:53:38;5.90;99.90
39315;DHT22;28703;44.412;11.918;2023-03-01T03:56:04;5.90;99.90
39315;DHT22;28703;44.412;11.918;2023-03-01T03:58:30;5.90;99.90
39315;DHT22;28703;44.412;11.918;2023-03-01T04:00:56;5.80;99.90
39315;DHT22;28703;44.412;11.918;2023-03-01T04:03:24;5.80;99.90
39315;DHT22;28703;44.412;11.918;2023-03-01T04:05:50;5.80;99.90
39315;DHT22;28703;44.412;11.918;2023-03-01T04:08:18;5.90;99.90
39315;DHT22;28703;44.412;11.918;2023-03-01T04:10:48;5.70;99.90
39315;DHT22;28703;44.412;11.918;2023-03-01T04:13:16;5.70;99.90
39315;DHT22;28703;44.412;11.918;2023-03-01T04:15:42;5.70;99.90
39315;DHT22;28703;44.412;11.918;2023-03-01T04:18:11;5.70;99.90
39315;DHT22;28703;44.412;11.918;2023-03-01T04:20:37;5.70;99.90
39315;DHT22;28703;44.412;11.918;2023-03-01T04:25:45;5.60;99.90
39315;DHT22;28703;44.412;11.918;2023-03-01T04:28:12;5.70;99.90
39315;DHT22;28703;44.412;11.918;2023-03-01T04:30:38;5.70;99.90
39315;DHT22;28703;44.412;11.918;2023-03-01T04:33:09;5.70;99.90
39315;DHT22;28703;44.412;11.918;2023-03-01T04:35:36;5.60;99.90
39315;DHT22;28703;44.412;11.918;2023-03-01T04:38:03;5.60;99.90
39315;DHT22;28703;44.412;11.918;2023-03-01T04:40:29;5.60;99.90
39315;DHT22;28703;44.412;11.918;2023-03-01T04:42:55;5.60;99.90
39315;DHT22;28703;44.412;11.918;2023-03-01T04:45:21;5.60;99.90
39315;DHT22;28703;44.412;11.918;2023-03-01T04:47:47;5.50;99.90
39315;DHT22;28703;44.412;11.918;2023-03-01T04:50:16;5.50;99.90
39315;DHT22;28703;44.412;11.918;2023-03-01T04:52:43;5.50;99.90
39315;DHT22;28703;44.412;11.918;2023-03-01T04:55:09;5.50;99.90
39315;DHT22;28703;44.412;11.918;2023-03-01T04:57:36;5.40;99.90
39315;DHT22;28703;44.412;11.918;2023-03-01T05:00:03;5.40;99.90
39315;DHT22;28703;44.412;11.918;2023-03-01T05:05:38;5.20;99.90
39315;DHT22;28703;44.412;11.918;2023-03-01T05:08:07;5.20;99.90
39315;DHT22;28703;44.412;11.918;2023-03-01T05:10:35;5.10;99.90
39315;DHT22;28703;44.412;11.918;2023-03-01T05:13:01;5.10;99.90
39315;DHT22;28703;44.412;11.918;2023-03-01T05:15:30;5.00;99.90
39315;DHT22;28703;44.412;11.918;2023-03-01T05:17:57;5.00;99.90
39315;DHT22;28703;44.412;11.918;2023-03-01T05:20:28;4.90;99.90
39315;DHT22;28703;44.412;11.918;2023-03-01T05:22:57;4.90;99.90
39315;DHT22;28703;44.412;11.918;2023-03-01T05:25:24;4.90;99.90
39315;DHT22;28703;44.412;11.918;2023-03-01T05:27:50;4.90;99.90
39315;DHT22;28703;44.412;11.918;2023-03-01T05:30:17;4.90;99.90
39315;DHT22;28703;44.412;11.918;2023-03-01T05:32:49;4.90;99.90
39315;DHT22;28703;44.412;11.918;2023-03-01T05:35:17;4.90;99.90
39315;DHT22;28703;44.412;11.918;2023-03-01T05:37:45;4.90;99.90
39315;DHT22;28703;44.412;11.918;2023-03-01T05:40:17;4.90;99.90
39315;DHT22;28703;44.412;11.918;2023-03-01T05:42:45;4.90;99.90
39315;DHT22;28703;44.412;11.918;2023-03-01T05:45:11;4.90;99.90
39315;DHT22;28703;44.412;11.918;2023-03-01T05:47:39;5.00;99.90
39315;DHT22;28703;44.412;11.918;2023-03-01T05:50:11;4.90;99.90
39315;DHT22;28703;44.412;11.918;2023-03-01T05:52:37;4.90;99.90
39315;DHT22;28703;44.412;11.918;2023-03-01T05:55:03;4.90;99.90
39315;DHT22;28703;44.412;11.918;2023-03-01T05:57:29;4.90;99.90
39315;DHT22;28703;44.412;11.918;2023-03-01T05:59:55;4.90;99.90
39315;DHT22;28703;44.412;11.918;2023-03-01T06:02:21;4.80;99.90
39315;DHT22;28703;44.412;11.918;2023-03-01T06:04:47;4.80;99.90
39315;DHT22;28703;44.412;11.918;2023-03-01T06:07:12;4.90;99.90
39315;DHT22;28703;44.412;11.918;2023-03-01T06:09:38;4.90;99.90
39315;DHT22;28703;44.412;11.918;2023-03-01T06:12:04;4.80;99.90
39315;DHT22;28703;44.412;11.918;2023-03-01T06:14:31;4.80;99.90
39315;DHT22;28703;44.412;11.918;2023-03-01T06:16:57;4.80;99.90
39315;DHT22;28703;44.412;11.918;2023-03-01T06:19:23;4.80;99.90
39315;DHT22;28703;44.412;11.918;2023-03-01T06:21:49;4.70;99.90
39315;DHT22;28703;44.412;11.918;2023-03-01T06:24:15;4.80;99.90
39315;DHT22;28703;44.412;11.918;2023-03-01T06:26:41;4.70;99.90
39315;DHT22;28703;44.412;11.918;2023-03-01T06:29:07;4.70;99.90
39315;DHT22;28703;44.412;11.918;2023-03-01T06:31:34;4.80;99.90
39315;DHT22;28703;44.412;11.918;2023-03-01T06:34:00;4.70;99.90
39315;DHT22;28703;44.412;11.918;2023-03-01T06:36:26;4.70;99.90
39315;DHT22;28703;44.412;11.918;2023-03-01T06:38:51;4.70;99.90
39315;DHT22;28703;44.412;11.918;2023-03-01T06:41:17;4.70;99.90
39315;DHT22;28703;44.412;11.918;2023-03-01T06:43:43;4.80;99.90
39315;DHT22;28703;44.412;11.918;2023-03-01T06:46:11;4.80;99.90
39315;DHT22;28703;44.412;11.918;2023-03-01T06:48:43;4.80;99.90
39315;DHT22;28703;44.412;11.918;2023-03-01T06:51:09;4.70;99.90
39315;DHT22;28703;44.412;11.918;2023-03-01T06:53:35;4.70;99.90
39315;DHT22;28703;44.412;11.918;2023-03-01T06:56:03;4.80;99.90
39315;DHT22;28703;44.412;11.918;2023-03-01T06:58:29;4.70;99.90
39315;DHT22;28703;44.412;11.918;2023-03-01T07:00:55;4.70;99.90
39315;DHT22;28703;44.412;11.918;2023-03-01T07:03:21;4.60;99.90
39315;DHT22;28703;44.412;11.918;2023-03-01T07:05:51;4.60;99.90
39315;DHT22;28703;44.412;11.918;2023-03-01T07:08:18;4.50;99.90
39315;DHT22;28703;44.412;11.918;2023-03-01T07:10:44;4.60;99.90
39315;DHT22;28703;44.412;11.918;2023-03-01T07:13:10;4.60;99.90
39315;DHT22;28703;44.412;11.918;2023-03-01T07:15:40;4.60;99.90
39315;DHT22;28703;44.412;11.918;2023-03-01T07:18:06;4.60;99.90
39315;DHT22;28703;44.412;11.918;2023-03-01T07:20:32;4.60;99.90
39315;DHT22;28703;44.412;11.918;2023-03-01T07:22:58;4.60;99.90
39315;DHT22;28703;44.412;11.918;2023-03-01T07:25:24;4.60;99.90
39315;DHT22;28703;44.412;11.918;2023-03-01T07:27:53;4.60;99.90
39315;DHT22;28703;44.412;11.918;2023-03-01T07:30:21;4.60;99.90
39315;DHT22;28703;44.412;11.918;2023-03-01T07:32:47;4.60;99.90
39315;DHT22;28703;44.412;11.918;2023-03-01T07:35:13;4.60;99.90
39315;DHT22;28703;44.412;11.918;2023-03-01T07:37:40;4.60;99.90
39315;DHT22;28703;44.412;11.918;2023-03-01T07:40:09;4.60;99.90
39315;DHT22;28703;44.412;11.918;2023-03-01T07:42:36;4.70;99.90
39315;DHT22;28703;44.412;11.918;2023-03-01T07:45:09;4.70;99.90
39315;DHT22;28703;44.412;11.918;2023-03-01T07:47:36;4.70;99.90
39315;DHT22;28703;44.412;11.918;2023-03-01T07:50:03;4.70;99.90
39315;DHT22;28703;44.412;11.918;2023-03-01T07:52:29;4.70;99.90
39315;DHT22;28703;44.412;11.918;2023-03-01T07:54:56;4.70;99.90
39315;DHT22;28703;44.412;11.918;2023-03-01T07:57:23;4.70;99.90
39315;DHT22;28703;44.412;11.918;2023-03-01T07:59:49;4.70;99.90
39315;DHT22;28703;44.412;11.918;2023-03-01T08:02:14;4.70;99.90
39315;DHT22;28703;44.412;11.918;2023-03-01T08:04:41;4.70;99.90
39315;DHT22;28703;44.412;11.918;2023-03-01T08:07:07;4.80;99.90
39315;DHT22;28703;44.412;11.918;2023-03-01T08:09:37;4.80;99.90
39315;DHT22;28703;44.412;11.918;2023-03-01T08:12:04;4.90;99.90
39315;DHT22;28703;44.412;11.918;2023-03-01T08:14:33;4.80;99.90
39315;DHT22;28703;44.412;11.918;2023-03-01T08:16:59;4.80;99.90
39315;DHT22;28703;44.412;11.918;2023-03-01T08:19:25;4.70;99.90
39315;DHT22;28703;44.412;11.918;2023-03-01T08:21:53;4.70;99.90
39315;DHT22;28703;44.412;11.918;2023-03-01T08:24:19;4.70;99.90
39315;DHT22;28703;44.412;11.918;2023-03-01T08:26:45;4.70;99.90
39315;DHT22;28703;44.412;11.918;2023-03-01T08:29:11;4.80;99.90
39315;DHT22;28703;44.412;11.918;2023-03-01T08:31:39;4.80;99.90
39315;DHT22;28703;44.412;11.918;2023-03-01T08:34:08;4.70;99.90
39315;DHT22;28703;44.412;11.918;2023-03-01T08:36:40;4.70;99.90
39315;DHT22;28703;44.412;11.918;2023-03-01T08:39:08;4.70;99.90
39315;DHT22;28703;44.412;11.918;2023-03-01T08:41:34;4.70;99.90
39315;DHT22;28703;44.412;11.918;2023-03-01T08:43:59;4.70;99.90
39315;DHT22;28703;44.412;11.918;2023-03-01T08:46:31;4.70;99.90
39315;DHT22;28703;44.412;11.918;2023-03-01T08:49:03;4.80;99.90
39315;DHT22;28703;44.412;11.918;2023-03-01T08:51:29;4.70;99.90
39315;DHT22;28703;44.412;11.918;2023-03-01T08:53:57;4.70;99.90
39315;DHT22;28703;44.412;11.918;2023-03-01T08:56:23;4.70;99.90
39315;DHT22;28703;44.412;11.918;2023-03-01T08:58:49;4.60;99.90
39315;DHT22;28703;44.412;11.918;2023-03-01T09:01:17;4.70;99.90
39315;DHT22;28703;44.412;11.918;2023-03-01T09:03:43;4.70;99.90
39315;DHT22;28703;44.412;11.918;2023-03-01T09:06:10;4.70;99.90
39315;DHT22;28703;44.412;11.918;2023-03-01T09:08:38;4.60;99.90
39315;DHT22;28703;44.412;11.918;2023-03-01T09:11:05;4.60;99.90
39315;DHT22;28703;44.412;11.918;2023-03-01T09:13:32;4.60;99.90
39315;DHT22;28703;44.412;11.918;2023-03-01T09:15:58;4.60;99.90
39315;DHT22;28703;44.412;11.918;2023-03-01T09:18:24;4.60;99.90
39315;DHT22;28703;44.412;11.918;2023-03-01T09:20:50;4.60;99.90
39315;DHT22;28703;44.412;11.918;2023-03-01T09:23:16;4.60;99.90
39315;DHT22;28703;44.412;11.918;2023-03-01T09:25:42;4.60;99.90
39315;DHT22;28703;44.412;11.918;2023-03-01T09:28:09;4.50;99.90
39315;DHT22;28703;44.412;11.918;2023-03-01T09:30:36;4.60;99.90
39315;DHT22;28703;44.412;11.918;2023-03-01T09:33:03;4.50;99.90
39315;DHT22;28703;44.412;11.918;2023-03-01T09:35:31;4.50;99.90
39315;DHT22;28703;44.412;11.918;2023-03-01T09:38:00;4.60;99.90
39315;DHT22;28703;44.412;11.918;2023-03-01T09:40:27;4.60;99.90
39315;DHT22;28703;44.412;11.918;2023-03-01T09:45:46;4.70;99.90
39315;DHT22;28703;44.412;11.918;2023-03-01T09:48:19;4.60;99.90
39315;DHT22;28703;44.412;11.918;2023-03-01T09:50:48;4.70;99.90
39315;DHT22;28703;44.412;11.918;2023-03-01T09:53:17;4.70;99.90
39315;DHT22;28703;44.412;11.918;2023-03-01T09:55:55;4.80;99.90
39315;DHT22;28703;44.412;11.918;2023-03-01T10:06:29;4.70;99.90
39315;DHT22;28703;44.412;11.918;2023-03-01T10:10:01;4.80;99.90
39315;DHT22;28703;44.412;11.918;2023-03-01T10:11:56;4.80;99.90
39315;DHT22;28703;44.412;11.918;2023-03-01T10:17:39;4.80;99.90
39315;DHT22;28703;44.412;11.918;2023-03-01T10:20:46;4.80;99.90
39315;DHT22;28703;44.412;11.918;2023-03-01T10:23:12;4.80;99.90
39315;DHT22;28703;44.412;11.918;2023-03-01T10:28:54;4.80;99.90
39315;DHT22;28703;44.412;11.918;2023-03-01T10:31:21;4.80;99.90
39315;DHT22;28703;44.412;11.918;2023-03-01T10:33:51;4.80;99.90
39315;DHT22;28703;44.412;11.918;2023-03-01T10:36:23;4.80;99.90
39315;DHT22;28703;44.412;11.918;2023-03-01T10:38:55;4.80;99.90
39315;DHT22;28703;44.412;11.918;2023-03-01T10:41:26;4.80;99.90
39315;DHT22;28703;44.412;11.918;2023-03-01T10:43:57;4.80;99.90
39315;DHT22;28703;44.412;11.918;2023-03-01T10:46:36;4.80;99.90
39315;DHT22;28703;44.412;11.918;2023-03-01T10:49:15;4.80;99.90
39315;DHT22;28703;44.412;11.918;2023-03-01T10:51:44;4.70;99.90
39315;DHT22;28703;44.412;11.918;2023-03-01T10:54:27;4.70;99.90
39315;DHT22;28703;44.412;11.918;2023-03-01T10:57:03;4.70;99.90
39315;DHT22;28703;44.412;11.918;2023-03-01T10:59:32;4.60;99.90
39315;DHT22;28703;44.412;11.918;2023-03-01T11:02:25;4.70;99.90
39315;DHT22;28703;44.412;11.918;2023-03-01T11:05:23;4.70;99.90
39315;DHT22;28703;44.412;11.918;2023-03-01T11:07:58;4.60;99.90
39315;DHT22;28703;44.412;11.918;2023-03-01T11:10:31;4.60;99.90
39315;DHT22;28703;44.412;11.918;2023-03-01T11:13:20;4.60;99.90
39315;DHT22;28703;44.412;11.918;2023-03-01T11:16:02;4.60;99.90
39315;DHT22;28703;44.412;11.918;2023-03-01T11:18:31;4.70;99.90
39315;DHT22;28703;44.412;11.918;2023-03-01T11:20:58;4.60;99.90
39315;DHT22;28703;44.412;11.918;2023-03-01T11:23:28;4.50;99.90
39315;DHT22;28703;44.412;11.918;2023-03-01T11:26:04;4.60;99.90
39315;DHT22;28703;44.412;11.918;2023-03-01T11:28:34;4.50;99.90
39315;DHT22;28703;44.412;11.918;2023-03-01T11:31:08;4.60;99.90
39315;DHT22;28703;44.412;11.918;2023-03-01T11:39:13;4.50;99.90
39315;DHT22;28703;44.412;11.918;2023-03-01T11:41:42;4.30;99.90
39315;DHT22;28703;44.412;11.918;2023-03-01T11:44:24;4.40;99.90
39315;DHT22;28703;44.412;11.918;2023-03-01T11:50:28;4.30;99.90
39315;DHT22;28703;44.412;11.918;2023-03-01T12:14:14;4.30;99.90
39315;DHT22;28703;44.412;11.918;2023-03-01T12:21:38;4.50;99.90
39315;DHT22;28703;44.412;11.918;2023-03-01T12:27:30;4.50;99.90
39315;DHT22;28703;44.412;11.918;2023-03-01T12:41:21;4.90;99.90
39315;DHT22;28703;44.412;11.918;2023-03-01T12:44:03;5.00;99.90
39315;DHT22;28703;44.412;11.918;2023-03-01T12:47:07;5.00;99.90
39315;DHT22;28703;44.412;11.918;2023-03-01T12:50:06;5.00;99.90
39315;DHT22;28703;44.412;11.918;2023-03-01T12:52:45;4.90;99.90
39315;DHT22;28703;44.412;11.918;2023-03-01T12:55:25;4.90;99.90
39315;DHT22;28703;44.412;11.918;2023-03-01T13:09:19;4.60;99.90
39315;DHT22;28703;44.412;11.918;2023-03-01T13:11:48;4.60;99.90
39315;DHT22;28703;44.412;11.918;2023-03-01T13:16:47;4.50;99.90
39315;DHT22;28703;44.412;11.918;2023-03-01T13:19:18;4.40;99.90
39315;DHT22;28703;44.412;11.918;2023-03-01T13:21:46;4.40;99.90
39315;DHT22;28703;44.412;11.918;2023-03-01T13:24:37;4.40;99.90
39315;DHT22;28703;44.412;11.918;2023-03-01T13:30:00;4.20;99.90
39315;DHT22;28703;44.412;11.918;2023-03-01T13:32:40;4.10;99.90
39315;DHT22;28703;44.412;11.918;2023-03-01T13:35:40;4.00;99.90
39315;DHT22;28703;44.412;11.918;2023-03-01T13:38:44;4.00;99.90
39315;DHT22;28703;44.412;11.918;2023-03-01T13:41:16;3.90;99.90
39315;DHT22;28703;44.412;11.918;2023-03-01T13:43:50;3.90;99.90
39315;DHT22;28703;44.412;11.918;2023-03-01T13:46:23;3.80;99.90
39315;DHT22;28703;44.412;11.918;2023-03-01T13:48:53;3.70;99.90
39315;DHT22;28703;44.412;11.918;2023-03-01T13:51:25;3.80;99.90
39315;DHT22;28703;44.412;11.918;2023-03-01T13:53:57;3.80;99.90
39315;DHT22;28703;44.412;11.918;2023-03-01T13:56:27;3.80;99.90
39315;DHT22;28703;44.412;11.918;2023-03-01T13:59:29;3.70;99.90
39315;DHT22;28703;44.412;11.918;2023-03-01T14:01:56;3.70;99.90
39315;DHT22;28703;44.412;11.918;2023-03-01T14:04:25;3.80;99.90
39315;DHT22;28703;44.412;11.918;2023-03-01T14:07:12;3.70;99.90
39315;DHT22;28703;44.412;11.918;2023-03-01T14:09:41;3.70;99.90
39315;DHT22;28703;44.412;11.918;2023-03-01T14:12:41;3.70;99.90
39315;DHT22;28703;44.412;11.918;2023-03-01T14:18:00;3.70;99.90
39315;DHT22;28703;44.412;11.918;2023-03-01T14:20:30;3.80;99.90
39315;DHT22;28703;44.412;11.918;2023-03-01T14:23:01;3.70;99.90
39315;DHT22;28703;44.412;11.918;2023-03-01T14:25:35;3.70;99.90
39315;DHT22;28703;44.412;11.918;2023-03-01T14:30:48;3.60;99.90
39315;DHT22;28703;44.412;11.918;2023-03-01T14:33:30;3.50;99.90
39315;DHT22;28703;44.412;11.918;2023-03-01T14:36:07;3.60;99.90
39315;DHT22;28703;44.412;11.918;2023-03-01T14:38:38;3.60;99.90
39315;DHT22;28703;44.412;11.918;2023-03-01T14:41:23;3.70;99.90
39315;DHT22;28703;44.412;11.918;2023-03-01T14:43:59;3.80;99.90
39315;DHT22;28703;44.412;11.918;2023-03-01T14:49:20;3.80;99.90
39315;DHT22;28703;44.412;11.918;2023-03-01T14:51:57;3.70;99.90
39315;DHT22;28703;44.412;11.918;2023-03-01T14:54:36;3.70;99.90
39315;DHT22;28703;44.412;11.918;2023-03-01T14:57:03;3.70;99.90
39315;DHT22;28703;44.412;11.918;2023-03-01T14:59:29;3.80;99.90
39315;DHT22;28703;44.412;11.918;2023-03-01T15:01:57;3.80;99.90
39315;DHT22;28703;44.412;11.918;2023-03-01T15:04:24;3.80;99.90
39315;DHT22;28703;44.412;11.918;2023-03-01T15:06:53;3.80;99.90
39315;DHT22;28703;44.412;11.918;2023-03-01T15:09:20;3.80;99.90
39315;DHT22;28703;44.412;11.918;2023-03-01T15:11:46;3.70;99.90
39315;DHT22;28703;44.412;11.918;2023-03-01T15:14:48;3.70;99.90
39315;DHT22;28703;44.412;11.918;2023-03-01T15:17:35;3.70;99.90
39315;DHT22;28703;44.412;11.918;2023-03-01T15:20:05;3.80;99.90
39315;DHT22;28703;44.412;11.918;2023-03-01T15:22:32;3.70;99.90
39315;DHT22;28703;44.412;11.918;2023-03-01T15:24:58;3.60;99.90
39315;DHT22;28703;44.412;11.918;2023-03-01T15:27:27;3.70;99.90
39315;DHT22;28703;44.412;11.918;2023-03-01T15:29:59;3.60;99.90
39315;DHT22;28703;44.412;11.918;2023-03-01T15:34:57;3.70;99.90
39315;DHT22;28703;44.412;11.918;2023-03-01T15:37:53;3.70;99.90
39315;DHT22;28703;44.412;11.918;2023-03-01T15:40:29;3.80;99.90
39315;DHT22;28703;44.412;11.918;2023-03-01T15:43:05;3.80;99.90
39315;DHT22;28703;44.412;11.918;2023-03-01T15:45:32;3.80;99.90
39315;DHT22;28703;44.412;11.918;2023-03-01T15:48:24;3.80;99.90
39315;DHT22;28703;44.412;11.918;2023-03-01T15:50:58;3.90;99.90
39315;DHT22;28703;44.412;11.918;2023-03-01T15:53:26;3.90;99.90
39315;DHT22;28703;44.412;11.918;2023-03-01T15:55:55;3.80;99.90
39315;DHT22;28703;44.412;11.918;2023-03-01T15:58:23;3.80;99.90
39315;DHT22;28703;44.412;11.918;2023-03-01T16:00:49;3.80;99.90
39315;DHT22;28703;44.412;11.918;2023-03-01T16:03:22;3.80;99.90
39315;DHT22;28703;44.412;11.918;2023-03-01T16:05:51;3.90;99.90
39315;DHT22;28703;44.412;11.918;2023-03-01T16:08:18;3.90;99.90
39315;DHT22;28703;44.412;11.918;2023-03-01T16:10:45;3.80;99.90
39315;DHT22;28703;44.412;11.918;2023-03-01T16:13:11;3.80;99.90
39315;DHT22;28703;44.412;11.918;2023-03-01T16:15:37;3.80;99.90
39315;DHT22;28703;44.412;11.918;2023-03-01T16:18:05;3.80;99.90
39315;DHT22;28703;44.412;11.918;2023-03-01T16:20:34;3.80;99.90
39315;DHT22;28703;44.412;11.918;2023-03-01T16:23:05;3.90;99.90
39315;DHT22;28703;44.412;11.918;2023-03-01T16:25:32;3.80;99.90
39315;DHT22;28703;44.412;11.918;2023-03-01T16:27:58;3.80;99.90
39315;DHT22;28703;44.412;11.918;2023-03-01T16:30:27;3.80;99.90
39315;DHT22;28703;44.412;11.918;2023-03-01T16:32:53;3.80;99.90
39315;DHT22;28703;44.412;11.918;2023-03-01T16:35:20;3.80;99.90
39315;DHT22;28703;44.412;11.918;2023-03-01T16:37:47;3.90;99.90
39315;DHT22;28703;44.412;11.918;2023-03-01T16:40:19;3.90;99.90
39315;DHT22;28703;44.412;11.918;2023-03-01T16:42:49;3.90;99.90
39315;DHT22;28703;44.412;11.918;2023-03-01T16:45:15;3.80;99.90
39315;DHT22;28703;44.412;11.918;2023-03-01T16:47:41;3.70;99.90
39315;DHT22;28703;44.412;11.918;2023-03-01T16:50:08;3.70;99.90
39315;DHT22;28703;44.412;11.918;2023-03-01T16:52:34;3.70;99.90
39315;DHT22;28703;44.412;11.918;2023-03-01T16:55:00;3.70;99.90
39315;DHT22;28703;44.412;11.918;2023-03-01T16:57:27;3.70;99.90
39315;DHT22;28703;44.412;11.918;2023-03-01T16:59:53;3.70;99.90
39315;DHT22;28703;44.412;11.918;2023-03-01T17:02:19;3.70;99.90
39315;DHT22;28703;44.412;11.918;2023-03-01T17:04:51;3.70;99.90
39315;DHT22;28703;44.412;11.918;2023-03-01T17:07:17;3.70;99.90
39315;DHT22;28703;44.412;11.918;2023-03-01T17:09:43;3.70;99.90
39315;DHT22;28703;44.412;11.918;2023-03-01T17:12:11;3.80;99.90
39315;DHT22;28703;44.412;11.918;2023-03-01T17:14:37;3.80;99.90
39315;DHT22;28703;44.412;11.918;2023-03-01T17:17:04;3.80;99.90
39315;DHT22;28703;44.412;11.918;2023-03-01T17:19:30;3.80;99.90
39315;DHT22;28703;44.412;11.918;2023-03-01T17:21:57;3.90;99.90
39315;DHT22;28703;44.412;11.918;2023-03-01T17:24:23;3.90;99.90
39315;DHT22;28703;44.412;11.918;2023-03-01T17:26:48;3.90;99.90
39315;DHT22;28703;44.412;11.918;2023-03-01T17:29:14;3.90;99.90
39315;DHT22;28703;44.412;11.918;2023-03-01T17:31:43;3.90;99.90